Detall de PIREP

Printer-friendly versionPDF version

[2015/04/28 17:35:00]
Flight IATA:CT0001
Pilot Number:016
Company ICAO:CAT
Aircraft Type:B738/F
PAX:108
Departing Airport: LEPA
Destination Airport: LEBL
Alternate Airport:LEPA
Online: VATSIM
Route:ESPOR W2 NEPAL
Flight Level:F180
No Slew and time accel
No pause
Crash detect
Detect pilot in Cockpit between each 30 and 45 minutes
17:35 Zero fuel Weight: 116039 Lbs, Fuel Weight: 12171 Lbs
17:35 VATSIM:LEPA 290000Z 06002KT 9999 FEW030 09/08 Q1020 NOSIG
17:35 VATSIM:LEBL 290000Z 30003KT 260V340 9999 FEW015 SCT056 13/10 Q1019 NOSIG
17:35 Parking Brakes off
17:45 Take-off
17:45 Take off Weight: 127220 Lbs
17:45 Wind: 062º @ 002 Knots Heading: 238º
17:45 POS N39º 33´ 19´´ E002º 43´ 40´´
17:45 Flaps:3 at 155 Knots
17:45 Gear Up: 156 Knots
17:47 Flaps:2 at 213 Knots
17:47 Flaps:1 at 231 Knots
17:47 Flaps:0 at 247 Knots
17:51 TOC
17:51 Fuel Weight: 9480 Lb
18:00 Wind:007º@008 Knots Heading: 342º Ground Speed: 387 Knots Altitude 18129 ft
18:00 TOD
18:00 Fuel Weight: 8553 Lb
18:06 Flaps:1 at 246 Knots
18:07 Flaps:2 at 215 Knots
18:08 Flaps:3 at 203 Knots
18:09 Flaps:4 at 194 Knots
18:11 Gear Down: 172 Knots
18:11 Flaps:5 at 157 Knots
18:12 Flaps:6 at 156 Knots
18:13 Flaps:7 at 143 Knots
18:13 Flaps:8 at 139 Knots
18:15 Wind:325º@004 Knots Heading: 246º Ground Speed: 128 Knots Altitude 019 ft
18:15 TouchDown:Rate -272 ft/min Speed: 131 Knots
18:15 VATSIM:LEBL 290100Z 31003KT 9999 FEW015 SCT056 13/10 Q1018 NOSIG
18:15 Land
18:15 Wind:325º@004 Knots
18:15 Heading: 244º
18:15 Flight Duration: 00:30
18:15 Landing Weight: 123682 Lbs
18:15 POS N41º 17´ 57´´ E002º 05´ 06´´
18:17 Parking brakes on
18:17 Block to Block Duration: 00:42
18:17 Final Fuel: 7462 Lbls
18:17 Spent Fuel: 4709 Lbls
18:17 Flight Length: 143 NM
18:17TOD Land Length: 57 NM

Exportar CSV

Powered by Drupal - Modified by Danger4k